CheckWX is a tool to help pilots better visualize weather data.  It is not intended as a substitute for an official pre-flight weather briefing.

07:51:13 UTC

EPDA TAF
Darłówek Naval Air Base Airport
Darłowo, Poland
TAF EPDA 190500Z 1906/1915 12006KT CAVOK

Jun-19@
06:00 UTC

Jun-19 @ 06:00 UTC

Jun-19@
15:00 UTC

Jun-19 @ 15:00 UTC

TAF EPDA 190500Z 1906/1915 12006KT CAVOK
Wind
  • 120° at 6 KTS
Conditions
No significant weather
Cloud Levels
  • No significant clouds